createdAt,value
2023-02-14T00:00:32.703Z,9.33
2023-02-14T00:03:00.327Z,10.93
2023-02-14T00:05:27.662Z,8.53
2023-02-14T00:07:55.071Z,9.50
2023-02-14T00:10:22.372Z,8.93
2023-02-14T00:12:49.668Z,9.63
2023-02-14T00:15:22.919Z,7.10
2023-02-14T00:17:51.357Z,8.47
2023-02-14T00:20:18.831Z,11.50
2023-02-14T00:22:46.103Z,8.43
2023-02-14T00:25:13.509Z,9.07
2023-02-14T00:27:41.021Z,8.43
2023-02-14T00:30:09.018Z,7.13
2023-02-14T00:32:39.555Z,9.50
2023-02-14T00:35:07.582Z,8.07
2023-02-14T00:37:35.008Z,10.83
2023-02-14T00:40:02.499Z,8.20
2023-02-14T00:42:29.864Z,8.90
2023-02-14T00:44:57.212Z,8.87
2023-02-14T00:47:24.683Z,6.77
2023-02-14T00:49:52.496Z,7.67
2023-02-14T00:52:19.878Z,8.00
2023-02-14T00:54:47.207Z,8.97
2023-02-14T00:57:14.756Z,8.50
2023-02-14T00:59:42.019Z,9.00
2023-02-14T01:02:09.381Z,11.10
2023-02-14T01:04:36.818Z,10.07
2023-02-14T01:07:04.140Z,6.50
2023-02-14T01:09:31.526Z,8.27
2023-02-14T01:12:02.614Z,12.70
2023-02-14T01:14:29.920Z,8.27
2023-02-14T01:16:57.266Z,7.83
2023-02-14T01:19:25.332Z,8.47
2023-02-14T01:21:52.629Z,8.50
2023-02-14T01:24:25.075Z,9.33
2023-02-14T01:26:52.452Z,9.10
2023-02-14T01:29:19.748Z,9.37
2023-02-14T01:31:49.330Z,9.33
2023-02-14T01:34:17.961Z,8.27
2023-02-14T01:36:47.696Z,8.40
2023-02-14T01:39:16.040Z,10.67
2023-02-14T01:41:50.054Z,7.73
2023-02-14T01:44:17.641Z,9.23
2023-02-14T01:46:45.873Z,8.43
2023-02-14T01:49:21.034Z,7.00
2023-02-14T01:52:03.043Z,7.27
2023-02-14T01:54:32.726Z,7.80
2023-02-14T01:57:03.130Z,6.37
2023-02-14T01:59:32.613Z,6.57
2023-02-14T02:02:00.338Z,6.00
2023-02-14T02:04:31.205Z,6.70
2023-02-14T02:07:01.727Z,8.63
2023-02-14T02:09:37.445Z,8.00
2023-02-14T02:12:04.890Z,7.23
2023-02-14T02:14:32.686Z,8.43
2023-02-14T02:17:03.282Z,6.67
2023-02-14T02:19:46.006Z,7.27
2023-02-14T02:22:13.299Z,6.40
2023-02-14T02:24:49.986Z,10.83
2023-02-14T02:27:21.223Z,8.10
2023-02-14T02:29:54.689Z,8.27
2023-02-14T02:32:40.827Z,8.43
2023-02-14T02:35:14.240Z,7.23
2023-02-14T02:37:41.579Z,7.13
2023-02-14T02:40:11.987Z,8.50
2023-02-14T02:42:50.051Z,6.70
2023-02-14T02:45:17.382Z,7.47
2023-02-14T02:47:56.619Z,8.23
2023-02-14T02:50:53.349Z,7.13
2023-02-14T02:53:20.632Z,7.90
2023-02-14T02:56:11.830Z,5.07
2023-02-14T02:58:42.285Z,7.70
2023-02-14T03:01:12.341Z,7.80
2023-02-14T03:03:59.932Z,8.60
2023-02-14T03:06:27.306Z,8.30
2023-02-14T03:08:54.619Z,6.70
2023-02-14T03:11:22.032Z,6.50
2023-02-14T03:13:52.475Z,9.97
2023-02-14T03:16:25.353Z,9.80
2023-02-14T03:19:14.351Z,5.77
2023-02-14T03:22:00.645Z,6.10
2023-02-14T03:24:27.953Z,6.77
2023-02-14T03:27:02.008Z,6.57
2023-02-14T03:29:29.463Z,9.43
2023-02-14T03:32:01.180Z,5.23
2023-02-14T03:35:20.716Z,7.77
2023-02-14T03:37:48.528Z,8.87
2023-02-14T03:40:16.672Z,6.93
2023-02-14T03:42:50.810Z,6.53
2023-02-14T03:45:21.638Z,5.47
2023-02-14T03:47:49.239Z,9.20
2023-02-14T03:50:18.206Z,7.63
2023-02-14T03:52:46.785Z,7.80
2023-02-14T03:55:16.520Z,7.37
2023-02-14T03:57:51.221Z,8.50
2023-02-14T04:00:19.086Z,6.17
2023-02-14T04:02:47.964Z,6.53
2023-02-14T04:05:17.954Z,6.50
2023-02-14T04:07:50.098Z,6.47
2023-02-14T04:10:17.492Z,6.03
2023-02-14T04:12:45.053Z,5.17
2023-02-14T04:15:13.332Z,6.13
2023-02-14T04:17:59.411Z,6.20
2023-02-14T04:20:27.070Z,6.57
2023-02-14T04:22:54.661Z,7.37
2023-02-14T04:25:22.378Z,7.60
2023-02-14T04:27:49.819Z,6.37
2023-02-14T04:30:18.091Z,6.70
2023-02-14T04:32:45.615Z,5.57
2023-02-14T04:35:12.900Z,5.53
2023-02-14T04:37:40.359Z,7.93
2023-02-14T04:40:08.083Z,5.43
2023-02-14T04:42:35.724Z,7.13
2023-02-14T04:45:04.442Z,7.73
2023-02-14T04:47:31.878Z,8.10
2023-02-14T04:49:59.236Z,8.20
2023-02-14T04:52:26.682Z,7.17
2023-02-14T04:54:54.150Z,6.63
2023-02-14T04:57:21.577Z,8.00
2023-02-14T04:59:48.887Z,7.13
2023-02-14T05:02:16.318Z,6.93
2023-02-14T05:04:43.664Z,6.70
2023-02-14T05:07:10.982Z,5.70
2023-02-14T05:09:38.393Z,7.57
2023-02-14T05:12:05.731Z,5.27
2023-02-14T05:14:33.146Z,6.90
2023-02-14T05:17:00.617Z,5.97
2023-02-14T05:19:27.920Z,6.23
2023-02-14T05:21:55.335Z,6.00
2023-02-14T05:24:22.618Z,7.83
2023-02-14T05:26:49.965Z,6.90
2023-02-14T05:29:17.366Z,6.03
2023-02-14T05:31:44.771Z,10.53
2023-02-14T05:34:12.397Z,5.93
2023-02-14T05:36:39.701Z,9.33
2023-02-14T05:39:07.011Z,6.50
2023-02-14T05:41:34.311Z,6.57
2023-02-14T05:44:01.937Z,6.63
2023-02-14T05:46:29.355Z,6.70
2023-02-14T05:48:56.621Z,7.70
2023-02-14T05:51:23.994Z,5.70
2023-02-14T05:53:51.473Z,7.73
2023-02-14T05:56:18.788Z,6.50
2023-02-14T05:58:46.128Z,5.63
2023-02-14T06:01:13.561Z,5.40
2023-02-14T06:03:40.946Z,7.30
2023-02-14T06:06:08.277Z,6.53
2023-02-14T06:08:35.698Z,6.60
2023-02-14T06:11:03.011Z,10.17
2023-02-14T06:13:30.770Z,5.93
2023-02-14T06:15:58.070Z,7.27
2023-02-14T06:18:28.114Z,9.33
2023-02-14T06:20:55.740Z,5.93
2023-02-14T06:23:22.999Z,5.93
2023-02-14T06:25:50.253Z,6.40
2023-02-14T06:28:17.579Z,7.77
2023-02-14T06:30:46.757Z,6.87
2023-02-14T06:33:14.104Z,6.70
2023-02-14T06:35:41.444Z,6.03
2023-02-14T06:38:08.688Z,7.00
2023-02-14T06:40:35.964Z,9.93
2023-02-14T06:43:03.298Z,7.83
2023-02-14T06:45:30.664Z,8.40
2023-02-14T06:47:58.070Z,8.53
2023-02-14T06:50:25.442Z,10.43
2023-02-14T06:52:52.742Z,5.93
2023-02-14T06:55:20.480Z,6.10
2023-02-14T06:57:47.993Z,9.10
2023-02-14T07:00:15.539Z,7.53
2023-02-14T07:02:43.132Z,8.40
2023-02-14T07:05:10.787Z,8.00
2023-02-14T07:07:38.331Z,6.40
2023-02-14T07:10:06.192Z,7.10
2023-02-14T07:12:34.774Z,6.07
2023-02-14T07:15:02.189Z,9.52
2023-02-14T07:17:29.499Z,7.93
2023-02-14T07:19:56.810Z,7.97
2023-02-14T07:22:29.493Z,7.07
2023-02-14T07:25:00.347Z,8.10
2023-02-14T07:27:27.638Z,7.07
2023-02-14T07:29:55.147Z,6.60
2023-02-14T07:32:23.642Z,8.07
2023-02-14T07:34:51.487Z,6.30
2023-02-14T07:37:19.107Z,9.17
2023-02-14T07:39:46.480Z,5.87
2023-02-14T07:42:13.939Z,7.37
2023-02-14T07:44:42.063Z,6.20
2023-02-14T07:47:10.173Z,8.03
2023-02-14T07:49:37.514Z,6.10
2023-02-14T07:52:05.663Z,5.97
2023-02-14T07:54:33.150Z,7.37
2023-02-14T07:57:00.519Z,7.33
2023-02-14T07:59:28.042Z,6.07
2023-02-14T08:01:55.470Z,8.60
2023-02-14T08:04:26.101Z,6.73
2023-02-14T08:06:53.889Z,8.13
2023-02-14T08:09:28.406Z,8.70
2023-02-14T08:12:16.241Z,6.93
2023-02-14T08:14:44.186Z,9.27
2023-02-14T08:17:13.441Z,7.90
2023-02-14T08:19:42.627Z,5.70
2023-02-14T08:22:10.189Z,6.03
2023-02-14T08:24:38.366Z,7.50
2023-02-14T08:27:18.198Z,8.20
2023-02-14T08:29:47.988Z,9.20
2023-02-14T08:32:18.199Z,7.70
2023-02-14T08:34:47.649Z,6.37
2023-02-14T08:37:17.028Z,6.93
2023-02-14T08:39:44.298Z,8.03
2023-02-14T08:42:14.942Z,6.30
2023-02-14T08:44:42.257Z,8.57
2023-02-14T08:47:09.601Z,5.03
2023-02-14T08:49:36.914Z,9.27
2023-02-14T08:52:06.812Z,6.67
2023-02-14T08:54:34.575Z,8.27
2023-02-14T08:57:03.535Z,6.93
2023-02-14T08:59:32.113Z,6.10
2023-02-14T09:01:59.506Z,5.33
2023-02-14T09:04:27.021Z,7.00
2023-02-14T09:06:54.637Z,9.13
2023-02-14T09:09:23.202Z,8.10
2023-02-14T09:11:50.625Z,8.37
2023-02-14T09:14:20.584Z,11.53
2023-02-14T09:16:49.329Z,8.93
2023-02-14T09:19:16.962Z,8.70
2023-02-14T09:21:44.546Z,10.60
2023-02-14T09:24:13.561Z,8.73
2023-02-14T09:26:42.439Z,8.90
2023-02-14T09:29:13.784Z,8.70
2023-02-14T09:31:41.305Z,6.50
2023-02-14T09:34:27.224Z,13.73
2023-02-14T09:37:13.243Z,8.53
2023-02-14T09:39:40.588Z,8.03
2023-02-14T09:42:11.130Z,11.17
2023-02-14T09:44:48.435Z,9.53
2023-02-14T09:47:15.667Z,10.00
2023-02-14T09:49:43.527Z,9.93
2023-02-14T09:52:15.606Z,15.47
2023-02-14T09:54:44.359Z,15.70
2023-02-14T09:57:26.905Z,14.30
2023-02-14T09:59:58.480Z,11.87
2023-02-14T10:02:28.988Z,13.00
2023-02-14T10:05:02.501Z,12.73
2023-02-14T10:07:38.276Z,13.43
2023-02-14T10:10:14.554Z,11.10
2023-02-14T10:12:52.559Z,8.37
2023-02-14T10:15:22.527Z,11.07
2023-02-14T10:17:53.866Z,13.50
2023-02-14T10:20:27.617Z,10.80
2023-02-14T10:23:03.173Z,11.07
2023-02-14T10:25:34.557Z,11.57
2023-02-14T10:28:03.011Z,15.97
2023-02-14T10:30:38.542Z,12.70
2023-02-14T10:33:22.679Z,14.40
2023-02-14T10:35:52.435Z,16.00
2023-02-14T10:38:22.932Z,13.70
2023-02-14T10:41:19.679Z,17.30
2023-02-14T10:44:00.634Z,11.10
2023-02-14T10:46:43.922Z,13.07
2023-02-14T10:49:26.568Z,19.63
2023-02-14T10:52:16.324Z,18.70
2023-02-14T10:54:44.974Z,14.90
2023-02-14T10:57:17.469Z,16.37
2023-02-14T10:59:53.368Z,15.97
2023-02-14T11:02:23.824Z,13.90
2023-02-14T11:04:53.386Z,15.47
2023-02-14T11:07:24.530Z,12.90
2023-02-14T11:09:52.053Z,17.20
2023-02-14T11:12:33.226Z,17.00
2023-02-14T11:15:15.851Z,16.83
2023-02-14T11:17:43.750Z,18.67
2023-02-14T11:20:20.372Z,15.33
2023-02-14T11:22:47.782Z,14.27
2023-02-14T11:25:23.786Z,15.57
2023-02-14T11:28:02.805Z,17.30
2023-02-14T11:30:32.468Z,19.00
2023-02-14T11:32:59.913Z,15.53
2023-02-14T11:35:34.345Z,16.77
2023-02-14T11:38:03.396Z,19.23
2023-02-14T11:40:32.444Z,20.70
2023-02-14T11:43:13.428Z,19.80
2023-02-14T11:45:42.968Z,16.53
2023-02-14T11:48:37.159Z,20.20
2023-02-14T11:51:13.787Z,21.70
2023-02-14T11:53:44.645Z,20.30
2023-02-14T11:56:12.736Z,16.07
2023-02-14T11:58:42.375Z,16.27
2023-02-14T12:01:13.340Z,18.87
2023-02-14T12:03:46.414Z,17.33
2023-02-14T12:06:14.216Z,21.03
2023-02-14T12:08:43.937Z,20.47
2023-02-14T12:11:24.972Z,21.90
2023-02-14T12:13:56.586Z,19.63
2023-02-14T12:16:29.554Z,20.43
2023-02-14T12:18:56.849Z,20.10
2023-02-14T12:21:36.740Z,20.57
2023-02-14T12:24:19.556Z,18.23
2023-02-14T12:27:02.695Z,17.40
2023-02-14T12:29:41.413Z,18.10
2023-02-14T12:32:17.860Z,17.43
2023-02-14T12:34:47.429Z,21.70
2023-02-14T12:37:20.388Z,22.33
2023-02-14T12:39:50.737Z,19.57
2023-02-14T12:42:27.368Z,19.27
2023-02-14T12:45:15.272Z,23.97
2023-02-14T12:48:01.605Z,16.63
2023-02-14T12:50:31.978Z,18.17
2023-02-14T12:53:02.438Z,17.70
2023-02-14T12:55:48.334Z,20.87
2023-02-14T12:58:35.406Z,20.60
2023-02-14T13:01:28.447Z,19.17
2023-02-14T13:04:20.715Z,23.10
2023-02-14T13:07:11.224Z,20.47
2023-02-14T13:09:59.295Z,20.50
2023-02-14T13:12:40.056Z,20.00
2023-02-14T13:15:13.756Z,19.57
2023-02-14T13:18:04.493Z,20.47
2023-02-14T13:20:51.323Z,18.53
2023-02-14T13:23:21.929Z,24.07
2023-02-14T13:25:58.151Z,24.60
2023-02-14T13:28:27.264Z,18.53
2023-02-14T13:30:56.377Z,24.20
2023-02-14T13:33:26.387Z,21.80
2023-02-14T13:36:02.577Z,21.83
2023-02-14T13:38:31.961Z,21.27
2023-02-14T13:41:00.678Z,19.17
2023-02-14T13:44:00.922Z,21.73
2023-02-14T13:46:34.364Z,21.00
2023-02-14T13:49:07.005Z,21.03
2023-02-14T13:51:44.624Z,22.90
2023-02-14T13:54:21.528Z,21.50
2023-02-14T13:56:49.226Z,17.53
2023-02-14T13:59:29.176Z,22.37
2023-02-14T14:02:17.714Z,20.17
2023-02-14T14:04:45.228Z,23.60
2023-02-14T14:07:17.452Z,21.07
2023-02-14T14:09:45.535Z,25.43
2023-02-14T14:12:28.403Z,21.17
2023-02-14T14:15:05.417Z,17.43
2023-02-14T14:17:35.181Z,28.10
2023-02-14T14:20:04.445Z,22.37
2023-02-14T14:22:31.963Z,19.70
2023-02-14T14:25:10.602Z,23.07
2023-02-14T14:27:42.524Z,20.90
2023-02-14T14:30:18.957Z,20.50
2023-02-14T14:32:46.631Z,24.93
2023-02-14T14:35:15.792Z,20.53
2023-02-14T14:37:54.526Z,24.90
2023-02-14T14:40:32.488Z,22.83
2023-02-14T14:43:07.534Z,20.83
2023-02-14T14:45:37.886Z,20.40
2023-02-14T14:48:10.918Z,14.33
2023-02-14T14:50:39.933Z,21.53
2023-02-14T14:53:11.767Z,19.27
2023-02-14T14:55:40.101Z,18.80
2023-02-14T14:58:11.678Z,18.27
2023-02-14T15:00:42.536Z,20.27
2023-02-14T15:03:15.653Z,19.37
2023-02-14T15:05:44.261Z,21.60
2023-02-14T15:08:27.842Z,24.43
2023-02-14T15:11:38.416Z,21.27
2023-02-14T15:14:14.821Z,21.63
2023-02-14T15:16:45.535Z,24.87
2023-02-14T15:19:18.372Z,23.07
2023-02-14T15:21:47.144Z,20.37
2023-02-14T15:24:16.718Z,24.07
2023-02-14T15:26:48.498Z,22.53
2023-02-14T15:29:23.964Z,22.67
2023-02-14T15:31:52.403Z,23.27
2023-02-14T15:34:32.454Z,25.87
2023-02-14T15:37:03.960Z,28.83
2023-02-14T15:39:41.655Z,21.97
2023-02-14T15:42:23.847Z,23.53
2023-02-14T15:44:51.424Z,21.40
2023-02-14T15:47:22.624Z,19.20
2023-02-14T15:49:52.451Z,26.20
2023-02-14T15:52:22.512Z,22.47
2023-02-14T15:54:50.843Z,23.97
2023-02-14T15:57:35.805Z,25.47
2023-02-14T16:00:09.919Z,20.90
2023-02-14T16:02:42.288Z,21.53
2023-02-14T16:05:20.840Z,25.80
2023-02-14T16:07:57.835Z,24.30
2023-02-14T16:10:26.883Z,21.13
2023-02-14T16:12:59.347Z,22.17
2023-02-14T16:15:28.522Z,25.60
2023-02-14T16:17:56.123Z,23.17
2023-02-14T16:20:23.645Z,24.17
2023-02-14T16:22:51.443Z,23.67
2023-02-14T16:25:18.969Z,23.27
2023-02-14T16:27:46.361Z,25.90
2023-02-14T16:30:18.723Z,18.50
2023-02-14T16:32:53.760Z,18.83
2023-02-14T16:35:22.356Z,20.87
2023-02-14T16:37:51.029Z,15.10
2023-02-14T16:40:19.902Z,23.97
2023-02-14T16:42:47.407Z,20.73
2023-02-14T16:45:18.965Z,19.97
2023-02-14T16:47:47.716Z,27.40
2023-02-14T16:50:15.457Z,16.33
2023-02-14T16:52:44.019Z,21.43
2023-02-14T16:55:20.691Z,25.87
2023-02-14T16:57:50.002Z,23.27
2023-02-14T17:00:17.674Z,19.10
2023-02-14T17:02:45.742Z,18.83
2023-02-14T17:05:13.682Z,17.57
2023-02-14T17:07:45.220Z,17.37
2023-02-14T17:10:22.312Z,17.67
2023-02-14T17:12:57.559Z,19.30
2023-02-14T17:15:32.248Z,20.63
2023-02-14T17:18:10.086Z,17.33
2023-02-14T17:20:40.960Z,17.13
2023-02-14T17:23:09.154Z,17.07
2023-02-14T17:25:36.751Z,15.53
2023-02-14T17:28:11.832Z,13.33
2023-02-14T17:30:42.723Z,16.63
2023-02-14T17:33:10.198Z,14.37
2023-02-14T17:35:38.214Z,18.43
2023-02-14T17:38:05.878Z,17.17
2023-02-14T17:40:33.379Z,16.67
2023-02-14T17:43:01.406Z,18.47
2023-02-14T17:45:28.806Z,15.57
2023-02-14T17:47:56.568Z,22.20
2023-02-14T17:50:24.009Z,13.67
2023-02-14T17:52:55.447Z,17.13
2023-02-14T17:55:23.511Z,17.47
2023-02-14T17:57:52.593Z,16.07
2023-02-14T18:00:24.205Z,17.03
2023-02-14T18:02:51.897Z,13.63
2023-02-14T18:05:19.374Z,17.90
2023-02-14T18:07:47.620Z,18.00
2023-02-14T18:10:15.445Z,18.07
2023-02-14T18:12:43.664Z,17.77
2023-02-14T18:15:11.103Z,16.17
2023-02-14T18:17:39.982Z,15.67
2023-02-14T18:20:07.793Z,18.67
2023-02-14T18:22:35.232Z,17.50
2023-02-14T18:25:02.610Z,18.10
2023-02-14T18:27:30.143Z,17.37
2023-02-14T18:30:17.786Z,16.43
2023-02-14T18:32:45.217Z,15.40
2023-02-14T18:35:13.081Z,22.50
2023-02-14T18:37:42.029Z,16.53
2023-02-14T18:40:11.283Z,17.77
2023-02-14T18:42:38.758Z,17.73
2023-02-14T18:45:06.427Z,17.37
2023-02-14T18:47:33.850Z,18.90
2023-02-14T18:50:34.277Z,14.70
2023-02-14T18:53:01.809Z,20.47
2023-02-14T18:55:39.435Z,16.80
2023-02-14T18:58:07.834Z,17.13
2023-02-14T19:00:35.450Z,16.40
2023-02-14T19:03:03.541Z,18.23
2023-02-14T19:05:32.150Z,18.07
2023-02-14T19:08:00.543Z,18.77
2023-02-14T19:10:27.975Z,18.53
2023-02-14T19:12:55.590Z,19.03
2023-02-14T19:15:23.039Z,17.07
2023-02-14T19:17:56.573Z,16.90
2023-02-14T19:20:23.995Z,19.93
2023-02-14T19:22:51.853Z,15.60
2023-02-14T19:25:19.330Z,18.07
2023-02-14T19:27:46.830Z,18.93
2023-02-14T19:30:14.971Z,18.43
2023-02-14T19:32:42.441Z,18.60
2023-02-14T19:35:11.921Z,18.10
2023-02-14T19:37:39.565Z,17.60
2023-02-14T19:40:07.333Z,17.10
2023-02-14T19:42:35.567Z,16.80
2023-02-14T19:45:03.221Z,17.23
2023-02-14T19:47:46.345Z,20.73
2023-02-14T19:50:15.664Z,17.40
2023-02-14T19:52:44.200Z,19.57
2023-02-14T19:55:20.561Z,16.50
2023-02-14T19:57:50.499Z,16.83
2023-02-14T20:00:18.420Z,18.53
2023-02-14T20:02:50.429Z,16.80
2023-02-14T20:05:18.507Z,18.93
2023-02-14T20:07:49.597Z,21.30
2023-02-14T20:10:20.411Z,21.33
2023-02-14T20:12:47.965Z,17.33
2023-02-14T20:15:15.395Z,17.37
2023-02-14T20:17:42.807Z,16.53
2023-02-14T20:20:13.713Z,20.47
2023-02-14T20:22:42.027Z,16.60
2023-02-14T20:25:10.030Z,19.47
2023-02-14T20:27:38.362Z,17.13
2023-02-14T20:30:06.761Z,23.10
2023-02-14T20:32:35.242Z,19.13
2023-02-14T20:35:02.891Z,19.03
2023-02-14T20:37:30.380Z,20.03
2023-02-14T20:39:57.985Z,22.27
2023-02-14T20:42:25.463Z,21.27
2023-02-14T20:44:53.308Z,19.20
2023-02-14T20:47:21.466Z,16.13
2023-02-14T20:49:49.052Z,21.57
2023-02-14T20:52:18.013Z,21.30
2023-02-14T20:54:45.419Z,21.97
2023-02-14T20:57:12.752Z,16.63
2023-02-14T20:59:46.284Z,18.60
2023-02-14T21:02:13.779Z,16.30
2023-02-14T21:04:41.161Z,16.07
2023-02-14T21:07:10.404Z,21.83
2023-02-14T21:09:38.432Z,17.57
2023-02-14T21:12:06.975Z,18.70
2023-02-14T21:14:34.460Z,17.70
2023-02-14T21:17:04.406Z,19.27
2023-02-14T21:19:32.361Z,21.97
2023-02-14T21:21:59.835Z,21.03
2023-02-14T21:24:27.372Z,22.23
2023-02-14T21:26:54.835Z,19.53
2023-02-14T21:29:22.215Z,17.23
2023-02-14T21:31:50.876Z,17.10
2023-02-14T21:34:30.249Z,19.83
2023-02-14T21:37:02.505Z,19.23
2023-02-14T21:39:31.105Z,18.87
2023-02-14T21:41:59.710Z,21.80
2023-02-14T21:44:45.979Z,15.97
2023-02-14T21:47:13.485Z,19.60
2023-02-14T21:49:59.588Z,18.07
2023-02-14T21:52:26.978Z,16.10
2023-02-14T21:54:54.381Z,19.50
2023-02-14T21:57:21.838Z,22.37
2023-02-14T21:59:49.287Z,21.43
2023-02-14T22:02:16.675Z,18.07
2023-02-14T22:04:45.595Z,24.10
2023-02-14T22:07:13.020Z,20.97
2023-02-14T22:09:40.504Z,19.23
2023-02-14T22:12:08.183Z,19.03
2023-02-14T22:14:35.636Z,19.03
2023-02-14T22:17:03.025Z,17.57
2023-02-14T22:19:30.448Z,20.73
2023-02-14T22:21:57.953Z,22.43
2023-02-14T22:24:25.472Z,22.73
2023-02-14T22:26:52.843Z,21.23
2023-02-14T22:29:20.476Z,22.30
2023-02-14T22:31:48.023Z,20.63
2023-02-14T22:34:19.771Z,17.80
2023-02-14T22:36:48.634Z,19.07
2023-02-14T22:39:18.296Z,20.57
2023-02-14T22:41:47.598Z,20.77
2023-02-14T22:44:15.476Z,22.63
2023-02-14T22:46:43.046Z,23.23
2023-02-14T22:49:10.635Z,18.23
2023-02-14T22:51:39.331Z,25.33
2023-02-14T22:54:08.284Z,23.47
2023-02-14T22:56:40.418Z,25.03
2023-02-14T22:59:28.706Z,20.83
2023-02-14T23:01:56.404Z,21.47
2023-02-14T23:04:29.554Z,22.63
2023-02-14T23:06:57.211Z,22.43
2023-02-14T23:09:25.486Z,22.87
2023-02-14T23:11:53.055Z,22.77
2023-02-14T23:14:39.272Z,21.73
2023-02-14T23:17:26.752Z,22.97
2023-02-14T23:20:12.877Z,21.30
2023-02-14T23:22:41.280Z,20.03
2023-02-14T23:25:10.882Z,18.90
2023-02-14T23:27:43.472Z,21.97
2023-02-14T23:30:14.727Z,22.50
2023-02-14T23:32:42.283Z,19.03
2023-02-14T23:35:10.189Z,19.17
2023-02-14T23:37:37.815Z,21.33
2023-02-14T23:40:05.621Z,18.87
2023-02-14T23:42:33.060Z,17.47
2023-02-14T23:45:20.547Z,21.07
2023-02-14T23:47:48.193Z,20.73
2023-02-14T23:50:15.813Z,19.77
2023-02-14T23:52:44.812Z,22.87
2023-02-14T23:55:12.528Z,16.97
2023-02-14T23:57:40.104Z,16.50
